Time;durP1;ratioP1;P1;durP2;ratioP2;P2;SDS_P1;SDS_P2;PMS_P1;PMS_P2;Temp;Humidity;BMP_temperature;BMP_pressure;BME280_temperature;BME280_humidity;BME280_pressure;Samples;Min_cycle;Max_cycle;Signal;HPM_P1;HPM_P2
2022/08/29 00:04:19;;;;;;;;;;;;;;;15.2;53.12598;102348.5;;;;-75
2022/08/29 00:09:19;;;;;;;;;;;;;;;15.15;53.05371;102346.2;;;;-76
2022/08/29 00:14:20;;;;;;;;;;;;;;;15.14;53.02832;102343.1;;;;-75
2022/08/29 00:19:19;;;;;;;;;;;;;;;15.1;52.96777;102338.8;;;;-76
2022/08/29 00:24:19;;;;;;;;;;;;;;;15.12;52.91406;102335.3;;;;-76
2022/08/29 00:27:24;;;;;;;2.2;1;;;;;;;;;;;;;-77
2022/08/29 00:29:19;;;;;;;;;;;;;;;15.14;52.82617;102339.2;;;;-76
2022/08/29 00:34:19;;;;;;;;;;;;;;;15.16;52.7168;102337.9;;;;-76
2022/08/29 00:39:21;;;;;;;;;;;;;;;15.21;52.56445;102330.6;;;;-76
2022/08/29 00:44:19;;;;;;;;;;;;;;;15.26;52.40039;102329.9;;;;-75
2022/08/29 00:49:25;;;;;;;;;;;;;;;15.31;52.23633;102344.3;;;;-75
2022/08/29 00:54:19;;;;;;;;;;;;;;;15.35;51.98242;102344.7;;;;-75
2022/08/29 00:57:27;;;;;;;2.8;1;;;;;;;;;;;;;-76
2022/08/29 00:59:21;;;;;;;;;;;;;;;15.41;51.82031;102333.9;;;;-76
2022/08/29 01:04:19;;;;;;;;;;;;;;;15.48;51.64844;102343;;;;-75
2022/08/29 01:09:19;;;;;;;;;;;;;;;15.53;51.50684;102345.8;;;;-75
2022/08/29 01:14:20;;;;;;;;;;;;;;;15.57;51.47754;102349.6;;;;-74
2022/08/29 01:19:26;;;;;;;;;;;;;;;15.62;51.31445;102351.6;;;;-73
2022/08/29 01:24:28;;;;;;;;;;;;;;;15.65;51.24902;102349.9;;;;-75
2022/08/29 01:27:30;;;;;;;2.8;1.1;;;;;;;;;;;;;-75
2022/08/29 01:29:19;;;;;;;;;;;;;;;15.69;51.16406;102346.9;;;;-76
2022/08/29 01:34:20;;;;;;;;;;;;;;;15.72;51.15723;102345.5;;;;-75
2022/08/29 01:39:20;;;;;;;;;;;;;;;15.74;51.03516;102342.6;;;;-77
2022/08/29 01:44:21;;;;;;;;;;;;;;;15.78;50.92676;102342.3;;;;-75
2022/08/29 01:49:20;;;;;;;;;;;;;;;15.82;50.875;102349.3;;;;-75
2022/08/29 01:54:20;;;;;;;;;;;;;;;15.85;50.85449;102351.8;;;;-75
2022/08/29 01:57:30;;;;;;;3.7;1.2;;;;;;;;;;;;;-75
2022/08/29 01:59:24;;;;;;;;;;;;;;;15.86;50.82227;102353;;;;-76
2022/08/29 02:04:22;;;;;;;;;;;;;;;15.9;50.78125;102355.6;;;;-74
2022/08/29 02:09:19;;;;;;;;;;;;;;;15.92;50.70508;102356.3;;;;-76
2022/08/29 02:14:19;;;;;;;;;;;;;;;15.94;50.71875;102348.2;;;;-74
2022/08/29 02:19:19;;;;;;;;;;;;;;;15.96;50.6416;102346.2;;;;-76
2022/08/29 02:24:19;;;;;;;;;;;;;;;15.97;50.66602;102336.9;;;;-76
2022/08/29 02:27:32;;;;;;;2.7;1.3;;;;;;;;;;;;;-75
2022/08/29 02:29:19;;;;;;;;;;;;;;;16;50.52148;102339.5;;;;-75
2022/08/29 02:34:19;;;;;;;;;;;;;;;16.04;50.45898;102341.9;;;;-76
2022/08/29 02:39:19;;;;;;;;;;;;;;;16.06;50.4502;102338.8;;;;-75
2022/08/29 02:44:19;;;;;;;;;;;;;;;16.06;50.47266;102341.1;;;;-75
2022/08/29 02:49:19;;;;;;;;;;;;;;;16.09;50.45313;102337;;;;-75
2022/08/29 02:54:19;;;;;;;;;;;;;;;16.1;50.39844;102337.4;;;;-76
2022/08/29 02:57:34;;;;;;;2.2;1.2;;;;;;;;;;;;;-75
2022/08/29 02:59:19;;;;;;;;;;;;;;;16.13;50.41309;102344;;;;-77
2022/08/29 03:04:19;;;;;;;;;;;;;;;16.14;50.33496;102339.8;;;;-75
2022/08/29 03:09:19;;;;;;;;;;;;;;;16.17;50.27051;102333.9;;;;-75
2022/08/29 03:14:19;;;;;;;;;;;;;;;16.18;50.28223;102335.6;;;;-75
2022/08/29 03:19:19;;;;;;;;;;;;;;;16.22;50.19629;102333.2;;;;-73
2022/08/29 03:24:19;;;;;;;;;;;;;;;16.23;50.18555;102335;;;;-76
2022/08/29 03:27:37;;;;;;;5.8;1.6;;;;;;;;;;;;;-76
2022/08/29 03:29:19;;;;;;;;;;;;;;;16.24;50.16504;102333.4;;;;-74
2022/08/29 03:34:19;;;;;;;;;;;;;;;16.25;50.14355;102332.8;;;;-75
2022/08/29 03:39:19;;;;;;;;;;;;;;;16.27;50.12305;102325.7;;;;-75
2022/08/29 03:44:19;;;;;;;;;;;;;;;16.28;50.125;102325.7;;;;-75
2022/08/29 03:49:19;;;;;;;;;;;;;;;16.28;50.05664;102326.4;;;;-77
2022/08/29 03:54:19;;;;;;;;;;;;;;;16.29;50.01172;102319.8;;;;-75
2022/08/29 03:57:39;;;;;;;3.1;1.5;;;;;;;;;;;;;-75
2022/08/29 03:59:20;;;;;;;;;;;;;;;16.3;50.15039;102311.4;;;;-73
2022/08/29 04:09:19;;;;;;;;;;;;;;;16.3;50.16113;102318.5;;;;-76
2022/08/29 04:14:19;;;;;;;;;;;;;;;16.3;50.17285;102319.3;;;;-75
2022/08/29 04:19:19;;;;;;;;;;;;;;;16.31;50.24023;102320.1;;;;-75
2022/08/29 04:24:19;;;;;;;;;;;;;;;16.29;50.38574;102321.7;;;;-76
2022/08/29 04:27:41;;;;;;;3.8;1.8;;;;;;;;;;;;;-76
2022/08/29 04:29:19;;;;;;;;;;;;;;;16.29;50.37402;102327.1;;;;-75
2022/08/29 04:34:19;;;;;;;;;;;;;;;16.29;50.45313;102324.4;;;;-76
2022/08/29 04:39:19;;;;;;;;;;;;;;;16.28;50.56641;102316.2;;;;-76
2022/08/29 04:44:19;;;;;;;;;;;;;;;16.28;50.49902;102323.7;;;;-74
2022/08/29 04:49:20;;;;;;;;;;;;;;;16.26;50.62012;102325.5;;;;-76
2022/08/29 04:54:19;;;;;;;;;;;;;;;16.22;50.62598;102328.7;;;;-76
2022/08/29 04:57:43;;;;;;;4.2;1.8;;;;;;;;;;;;;-76
2022/08/29 04:59:19;;;;;;;;;;;;;;;16.2;50.66992;102329.3;;;;-76
2022/08/29 05:04:19;;;;;;;;;;;;;;;16.2;50.75977;102335.9;;;;-75
2022/08/29 05:09:19;;;;;;;;;;;;;;;16.18;50.72461;102338.6;;;;-75
2022/08/29 05:14:19;;;;;;;;;;;;;;;16.18;50.80273;102341.8;;;;-74
2022/08/29 05:19:19;;;;;;;;;;;;;;;16.18;50.72461;102346.2;;;;-75
2022/08/29 05:24:19;;;;;;;;;;;;;;;16.2;50.69141;102348.2;;;;-76
2022/08/29 05:27:47;;;;;;;3.7;1.7;;;;;;;;;;;;;-75
2022/08/29 05:29:19;;;;;;;;;;;;;;;16.21;50.66016;102353.1;;;;-75
2022/08/29 05:34:19;;;;;;;;;;;;;;;16.24;50.71875;102354.5;;;;-74
2022/08/29 05:39:21;;;;;;;;;;;;;;;16.27;50.71191;102354.9;;;;-77
2022/08/29 05:44:19;;;;;;;;;;;;;;;16.29;50.67969;102354.4;;;;-77
2022/08/29 05:49:19;;;;;;;;;;;;;;;16.31;50.70508;102356.2;;;;-75
2022/08/29 05:54:19;;;;;;;;;;;;;;;16.35;50.7334;102359.6;;;;-76
2022/08/29 05:57:49;;;;;;;3.7;1.7;;;;;;;;;;;;;-77
2022/08/29 05:59:20;;;;;;;;;;;;;;;16.38;50.71387;102361.2;;;;-76
2022/08/29 06:04:19;;;;;;;;;;;;;;;16.42;50.66016;102364.8;;;;-76
2022/08/29 06:09:19;;;;;;;;;;;;;;;16.47;50.63184;102369.2;;;;-76
2022/08/29 06:14:20;;;;;;;;;;;;;;;16.52;50.57031;102372.4;;;;-76
2022/08/29 06:19:19;;;;;;;;;;;;;;;16.6;50.51172;102374.7;;;;-75
2022/08/29 06:24:19;;;;;;;;;;;;;;;16.68;50.375;102377.5;;;;-75
2022/08/29 06:27:51;;;;;;;3.3;1.7;;;;;;;;;;;;;-74
2022/08/29 06:29:19;;;;;;;;;;;;;;;16.79;50.28418;102379.5;;;;-78
2022/08/29 06:34:19;;;;;;;;;;;;;;;16.91;50.16211;102377.7;;;;-75
2022/08/29 06:39:19;;;;;;;;;;;;;;;17.06;50.02051;102377.4;;;;-76
2022/08/29 06:44:22;;;;;;;;;;;;;;;17.22;49.96973;102381.2;;;;-76
2022/08/29 06:49:20;;;;;;;;;;;;;;;17.37;49.81641;102379.9;;;;-76
2022/08/29 06:54:19;;;;;;;;;;;;;;;17.49;49.71777;102381.7;;;;-76
2022/08/29 06:57:51;;;;;;;3.3;1.6;;;;;;;;;;;;;-76
2022/08/29 06:59:19;;;;;;;;;;;;;;;17.59;49.66016;102383.8;;;;-74
2022/08/29 07:04:19;;;;;;;;;;;;;;;17.69;49.61523;102382.4;;;;-75
2022/08/29 07:09:19;;;;;;;;;;;;;;;17.79;49.58203;102390.1;;;;-75
2022/08/29 07:14:19;;;;;;;;;;;;;;;17.88;49.51172;102386.8;;;;-75
2022/08/29 07:19:19;;;;;;;;;;;;;;;17.99;49.48926;102391.9;;;;-74
2022/08/29 07:24:19;;;;;;;;;;;;;;;18.08;49.5791;102385.8;;;;-75
2022/08/29 07:27:54;;;;;;;4.4;1.6;;;;;;;;;;;;;-77
2022/08/29 07:29:20;;;;;;;;;;;;;;;18.17;49.65723;102388.3;;;;-75
2022/08/29 07:34:19;;;;;;;;;;;;;;;18.26;50.12109;102389.6;;;;-75
2022/08/29 07:39:21;;;;;;;;;;;;;;;18.31;49.71973;102385.3;;;;-76
2022/08/29 07:44:20;;;;;;;;;;;;;;;18.37;50.18066;102381.3;;;;-75
2022/08/29 07:49:19;;;;;;;;;;;;;;;18.43;49.86816;102383.2;;;;-71
2022/08/29 07:54:19;;;;;;;;;;;;;;;18.49;49.6709;102387.1;;;;-76
2022/08/29 07:57:57;;;;;;;4.8;1.7;;;;;;;;;;;;;-75
2022/08/29 07:59:23;;;;;;;;;;;;;;;18.54;49.54004;102390.9;;;;-76
2022/08/29 08:04:19;;;;;;;;;;;;;;;18.6;49.43359;102387.9;;;;-76
2022/08/29 08:09:19;;;;;;;;;;;;;;;18.68;49.37305;102387.9;;;;-75
2022/08/29 08:14:19;;;;;;;;;;;;;;;18.78;49.41895;102392.1;;;;-76
2022/08/29 08:19:19;;;;;;;;;;;;;;;18.88;49.27051;102393.2;;;;-75
2022/08/29 08:24:19;;;;;;;;;;;;;;;18.96;49.20996;102387.7;;;;-75
2022/08/29 08:28:00;;;;;;;3.5;1.6;;;;;;;;;;;;;-76
2022/08/29 08:29:26;;;;;;;;;;;;;;;19.03;49.25293;102391.7;;;;-75
2022/08/29 08:34:19;;;;;;;;;;;;;;;19.1;49.21484;102383.6;;;;-75
2022/08/29 08:39:19;;;;;;;;;;;;;;;19.21;49.07813;102383.1;;;;-75
2022/08/29 08:44:30;;;;;;;;;;;;;;;19.36;48.86719;102383.5;;;;-76
2022/08/29 08:49:20;;;;;;;;;;;;;;;19.54;48.70605;102386.4;;;;-77
2022/08/29 08:54:23;;;;;;;;;;;;;;;19.73;48.5332;102389.7;;;;-74
2022/08/29 08:58:08;;;;;;;3.7;1.5;;;;;;;;;;;;;-76
2022/08/29 08:59:24;;;;;;;;;;;;;;;19.95;48.27051;102385.8;;;;-74
2022/08/29 09:04:30;;;;;;;;;;;;;;;20.16;48.03125;102382.1;;;;-75
2022/08/29 09:09:24;;;;;;;;;;;;;;;20.37;47.70996;102386.3;;;;-77
2022/08/29 09:14:25;;;;;;;;;;;;;;;20.53;47.56836;102388.6;;;;-76
2022/08/29 09:19:21;;;;;;;;;;;;;;;20.66;47.31934;102392.3;;;;-76
2022/08/29 09:24:23;;;;;;;;;;;;;;;20.74;47.5332;102391.9;;;;-76
2022/08/29 09:28:09;;;;;;;3.3;1.4;;;;;;;;;;;;;-76
2022/08/29 09:29:19;;;;;;;;;;;;;;;20.76;48.01563;102398.3;;;;-76
2022/08/29 09:34:29;;;;;;;;;;;;;;;20.71;48.03418;102392.6;;;;-76
2022/08/29 09:39:21;;;;;;;;;;;;;;;20.64;48.04785;102398.6;;;;-75
2022/08/29 09:44:22;;;;;;;;;;;;;;;20.57;48.17871;102408.4;;;;-75
2022/08/29 09:49:20;;;;;;;;;;;;;;;20.47;48.30469;102408.4;;;;-74
2022/08/29 09:54:30;;;;;;;;;;;;;;;20.4;48.37695;102406.6;;;;-75
2022/08/29 09:58:13;;;;;;;5.5;1.4;;;;;;;;;;;;;-75
2022/08/29 09:59:24;;;;;;;;;;;;;;;20.33;48.6084;102408.6;;;;-74
2022/08/29 10:04:29;;;;;;;;;;;;;;;20.24;48.7373;102408.5;;;;-75
2022/08/29 10:09:28;;;;;;;;;;;;;;;20.19;48.99414;102414;;;;-76
2022/08/29 10:14:24;;;;;;;;;;;;;;;20.14;49;102410.9;;;;-75
2022/08/29 10:19:21;;;;;;;;;;;;;;;20.09;49.34668;102411.8;;;;-76
2022/08/29 10:24:33;;;;;;;;;;;;;;;20.02;49.25977;102407;;;;-74
2022/08/29 10:28:14;;;;;;;3.4;1.4;;;;;;;;;;;;;-75
2022/08/29 10:29:26;;;;;;;;;;;;;;;19.98;49.37012;102410.6;;;;-75
2022/08/29 10:34:29;;;;;;;;;;;;;;;19.98;49.41504;102408.8;;;;-74
2022/08/29 10:39:20;;;;;;;;;;;;;;;20;49.85156;102406;;;;-76
2022/08/29 10:44:27;;;;;;;;;;;;;;;20.12;50.00195;102407.7;;;;-75
2022/08/29 10:49:23;;;;;;;;;;;;;;;20.3;49.97656;102402.2;;;;-75
2022/08/29 10:54:23;;;;;;;;;;;;;;;20.46;49.83496;102391.5;;;;-76
2022/08/29 10:58:20;;;;;;;3.8;1.4;;;;;;;;;;;;;-74
2022/08/29 10:59:26;;;;;;;;;;;;;;;20.7;49.44922;102389.2;;;;-75
2022/08/29 11:04:21;;;;;;;;;;;;;;;20.96;48.79199;102394.7;;;;-77
2022/08/29 11:09:21;;;;;;;;;;;;;;;21.29;48.47363;102391.3;;;;-76
2022/08/29 11:14:23;;;;;;;;;;;;;;;21.62;47.74219;102389.7;;;;-76
2022/08/29 11:19:22;;;;;;;;;;;;;;;21.88;47.20703;102376.9;;;;-77
2022/08/29 11:24:20;;;;;;;;;;;;;;;22.28;48.52344;102374.7;;;;-75
2022/08/29 11:28:22;;;;;;;3.8;1.6;;;;;;;;;;;;;-74
2022/08/29 11:29:26;;;;;;;;;;;;;;;23.07;48.59668;102368.8;;;;-75
2022/08/29 11:34:32;;;;;;;;;;;;;;;24;48.01953;102365.2;;;;-75
2022/08/29 11:39:29;;;;;;;;;;;;;;;24.86;45.92969;102363.4;;;;-76
2022/08/29 11:44:22;;;;;;;;;;;;;;;25.46;45.28516;102362.5;;;;-75
2022/08/29 11:49:30;;;;;;;;;;;;;;;25.96;44.64063;102355.5;;;;-76
2022/08/29 11:54:30;;;;;;;;;;;;;;;26.42;43.75879;102361.3;;;;-76
2022/08/29 11:58:34;;;;;;;4.4;1.4;;;;;;;;;;;;;-76
2022/08/29 11:59:29;;;;;;;;;;;;;;;26.77;43.74707;102368.5;;;;-76
2022/08/29 12:04:29;;;;;;;;;;;;;;;26.9;44.21191;102365.2;;;;-77
2022/08/29 12:09:30;;;;;;;;;;;;;;;26.94;43.75195;102357;;;;-75
2022/08/29 12:14:31;;;;;;;;;;;;;;;27.01;43.2002;102360.5;;;;-77
2022/08/29 12:19:31;;;;;;;;;;;;;;;27.01;42.95703;102358.3;;;;-77
2022/08/29 12:24:46;;;;;;;;;;;;;;;27.11;41.86328;102357.3;;;;-79
2022/08/29 12:28:36;;;;;;;4.3;1.1;;;;;;;;;;;;;-78
2022/08/29 12:29:32;;;;;;;;;;;;;;;27.32;41.40527;102360.3;;;;-78
2022/08/29 12:34:26;;;;;;;;;;;;;;;27.65;42.23828;102354.1;;;;-76
2022/08/29 12:39:25;;;;;;;;;;;;;;;28.01;42.43555;102351.8;;;;-77
2022/08/29 12:44:20;;;;;;;;;;;;;;;28.38;41.89941;102349.6;;;;-78
2022/08/29 12:49:25;;;;;;;;;;;;;;;28.7;41.49707;102337.1;;;;-79
2022/08/29 12:54:29;;;;;;;;;;;;;;;28.91;41.39941;102336.8;;;;-76
2022/08/29 12:58:42;;;;;;;2.5;1.2;;;;;;;;;;;;;-78
2022/08/29 12:59:22;;;;;;;;;;;;;;;28.99;40.82324;102330.9;;;;-77
2022/08/29 13:04:20;;;;;;;;;;;;;;;28.94;40.90039;102326.3;;;;-77
2022/08/29 13:09:26;;;;;;;;;;;;;;;29.02;40.02051;102320.4;;;;-77
2022/08/29 13:14:20;;;;;;;;;;;;;;;29.19;40.64355;102320.6;;;;-77
2022/08/29 13:19:25;;;;;;;;;;;;;;;29.35;40.90234;102315.5;;;;-78
2022/08/29 13:24:20;;;;;;;;;;;;;;;29.6;40.17676;102311.2;;;;-75
2022/08/29 13:28:37;;;;;;;2.3;1.2;;;;;;;;;;;;;-75
2022/08/29 13:29:31;;;;;;;;;;;;;;;29.96;39.92773;102311.1;;;;-76
2022/08/29 13:34:33;;;;;;;;;;;;;;;30.38;39.32031;102305.3;;;;-79
2022/08/29 13:39:28;;;;;;;;;;;;;;;30.62;39.62305;102303.4;;;;-76
2022/08/29 13:44:23;;;;;;;;;;;;;;;30.78;38.31152;102303.6;;;;-75
2022/08/29 13:49:20;;;;;;;;;;;;;;;30.82;37.79883;102299;;;;-74
2022/08/29 13:54:21;;;;;;;;;;;;;;;30.9;37.84082;102302.2;;;;-76
2022/08/29 13:58:40;;;;;;;2.9;1.3;;;;;;;;;;;;;-75
2022/08/29 13:59:20;;;;;;;;;;;;;;;30.98;37.90625;102294.2;;;;-76
2022/08/29 14:04:19;;;;;;;;;;;;;;;30.88;38.23828;102288.5;;;;-76
2022/08/29 14:09:21;;;;;;;;;;;;;;;30.9;38.28711;102280.3;;;;-75
2022/08/29 14:14:19;;;;;;;;;;;;;;;31.09;37.48047;102275.8;;;;-78
2022/08/29 14:19:19;;;;;;;;;;;;;;;31.26;37.27246;102267.3;;;;-76
2022/08/29 14:24:19;;;;;;;;;;;;;;;31.36;37.46777;102269.7;;;;-77
2022/08/29 14:28:45;;;;;;;2.6;1.1;;;;;;;;;;;;;-75
2022/08/29 14:29:19;;;;;;;;;;;;;;;31.45;37.25195;102267;;;;-77
2022/08/29 14:34:19;;;;;;;;;;;;;;;31.7;37.33105;102262.6;;;;-76
2022/08/29 14:39:19;;;;;;;;;;;;;;;31.89;36.04199;102256.5;;;;-77
2022/08/29 14:44:21;;;;;;;;;;;;;;;31.98;36.40137;102257.1;;;;-77
2022/08/29 14:49:19;;;;;;;;;;;;;;;32.02;36.8877;102250.8;;;;-77
2022/08/29 14:54:19;;;;;;;;;;;;;;;32.03;36.59375;102253.1;;;;-77
2022/08/29 14:58:50;;;;;;;2.9;1.1;;;;;;;;;;;;;-76
2022/08/29 14:59:19;;;;;;;;;;;;;;;32.03;36.47656;102253.2;;;;-77
2022/08/29 15:04:19;;;;;;;;;;;;;;;32.05;36.16016;102246.7;;;;-76
2022/08/29 15:09:22;;;;;;;;;;;;;;;32.04;36.04102;102248;;;;-77
2022/08/29 15:14:19;;;;;;;;;;;;;;;32.02;36.25195;102244.1;;;;-76
2022/08/29 15:19:20;;;;;;;;;;;;;;;32.02;35.65234;102229.2;;;;-78
2022/08/29 15:24:19;;;;;;;;;;;;;;;31.96;35.63574;102222.4;;;;-77
2022/08/29 15:28:54;;;;;;;2.7;1.1;;;;;;;;;;;;;-76
2022/08/29 15:29:19;;;;;;;;;;;;;;;31.9;35.25488;102217.7;;;;-77
2022/08/29 15:34:19;;;;;;;;;;;;;;;31.78;35.62207;102211.7;;;;-76
2022/08/29 15:39:20;;;;;;;;;;;;;;;31.7;35.95605;102216.9;;;;-76
2022/08/29 15:44:22;;;;;;;;;;;;;;;31.66;35.54102;102217.7;;;;-76
2022/08/29 15:49:20;;;;;;;;;;;;;;;31.5;35.74023;102216.1;;;;-77
2022/08/29 15:54:19;;;;;;;;;;;;;;;31.21;36.12891;102213;;;;-77
2022/08/29 15:59:00;;;;;;;3.7;1.3;;;;;;;;;;;;;-79
2022/08/29 15:59:19;;;;;;;;;;;;;;;30.84;36.46289;102219.3;;;;-79
2022/08/29 16:04:20;;;;;;;;;;;;;;;30.57;36.28906;102207.9;;;;-78
2022/08/29 16:09:19;;;;;;;;;;;;;;;30.36;36.46094;102211.6;;;;-75
2022/08/29 16:14:19;;;;;;;;;;;;;;;30.17;36.69043;102212.1;;;;-79
2022/08/29 16:19:19;;;;;;;;;;;;;;;30;36.84082;102208.3;;;;-77
2022/08/29 16:24:20;;;;;;;;;;;;;;;29.78;37.08105;102198.5;;;;-77
2022/08/29 16:29:04;;;;;;;6.3;2.2;;;;;;;;;;;;;-77
2022/08/29 16:29:18;;;;;;;;;;;;;;;29.6;37.21777;102201;;;;-78
2022/08/29 16:34:19;;;;;;;;;;;;;;;29.41;37.20313;102202.4;;;;-78
2022/08/29 16:39:22;;;;;;;;;;;;;;;29.18;37.67383;102200.5;;;;-76
2022/08/29 16:44:19;;;;;;;;;;;;;;;28.98;37.9502;102202.1;;;;-76
2022/08/29 16:49:19;;;;;;;;;;;;;;;28.77;38.13086;102196.7;;;;-76
2022/08/29 16:54:19;;;;;;;;;;;;;;;28.59;38.24316;102202.3;;;;-74
2022/08/29 16:59:11;;;;;;;5.8;1.7;;;;;;;;;;;;;-76
2022/08/29 16:59:21;;;;;;;;;;;;;;;28.37;38.50586;102200.5;;;;-76
2022/08/29 17:04:22;;;;;;;;;;;;;;;28.18;38.78125;102201;;;;-75
2022/08/29 17:19:19;;;;;;;;;;;;;;;27.62;39.4082;102189.3;;;;-76
2022/08/29 17:24:19;;;;;;;;;;;;;;;27.36;39.68848;102190.7;;;;-76
2022/08/29 17:29:13;;;;;;;5.6;1.7;;;;;;;;;;;;;-77
2022/08/29 17:29:23;;;;;;;;;;;;;;;27.06;40.1377;102189.5;;;;-77
2022/08/29 17:34:19;;;;;;;;;;;;;;;26.81;40.33691;102196;;;;-76
2022/08/29 17:39:20;;;;;;;;;;;;;;;26.54;40.74121;102206.5;;;;-76
2022/08/29 17:44:19;;;;;;;;;;;;;;;26.25;41.09863;102202.3;;;;-77
2022/08/29 17:49:19;;;;;;;;;;;;;;;25.98;41.22461;102204.4;;;;-76
2022/08/29 17:54:19;;;;;;;;;;;;;;;25.69;41.5459;102209.3;;;;-76
2022/08/29 17:59:19;;;;;;;6;2;;;;;;;;;;;;;-75
2022/08/29 17:59:31;;;;;;;;;;;;;;;25.36;41.85156;102206.8;;;;-76
2022/08/29 18:04:25;;;;;;;;;;;;;;;25.15;41.91309;102215.6;;;;-75
2022/08/29 18:09:20;;;;;;;;;;;;;;;24.88;42.17578;102216.1;;;;-77
2022/08/29 18:14:21;;;;;;;;;;;;;;;24.6;42.63574;102216.9;;;;-77
2022/08/29 18:19:20;;;;;;;;;;;;;;;24.32;42.67871;102208.8;;;;-76
2022/08/29 18:24:19;;;;;;;;;;;;;;;24.04;42.88184;102212.9;;;;-75
2022/08/29 18:29:19;;;;;;;;;;;;;;;23.76;43.5127;102212.7;;;;-76
2022/08/29 18:29:28;;;;;;;5.1;1.9;;;;;;;;;;;;;-76
2022/08/29 18:34:19;;;;;;;;;;;;;;;23.49;43.7627;102216.4;;;;-79
2022/08/29 18:39:19;;;;;;;;;;;;;;;23.22;44.16211;102228.8;;;;-77
2022/08/29 18:44:19;;;;;;;;;;;;;;;22.97;44.62012;102228.4;;;;-75
2022/08/29 18:50:32;;;;;;;;;;;;;;;22.71;45.00879;102235.9;;;;-75
2022/08/29 18:54:19;;;;;;;;;;;;;;;22.48;45.91699;102232.4;;;;-76
2022/08/29 18:59:19;;;;;;;;;;;;;;;22.23;46.36133;102244.8;;;;-76
2022/08/29 18:59:31;;;;;;;5.8;2;;;;;;;;;;;;;-76
2022/08/29 19:04:19;;;;;;;;;;;;;;;22.01;46.52246;102243.4;;;;-77
2022/08/29 19:09:19;;;;;;;;;;;;;;;21.82;47.28223;102250.8;;;;-74
2022/08/29 19:14:22;;;;;;;;;;;;;;;21.62;47.57031;102265.7;;;;-74
2022/08/29 19:19:19;;;;;;;;;;;;;;;21.45;48.27344;102262.7;;;;-75
2022/08/29 19:24:19;;;;;;;;;;;;;;;21.26;48.5166;102270.5;;;;-76
2022/08/29 19:29:19;;;;;;;;;;;;;;;21.07;49.69629;102269.7;;;;-76
2022/08/29 19:29:28;;;;;;;5.7;1.9;;;;;;;;;;;;;-74
2022/08/29 19:34:19;;;;;;;;;;;;;;;20.91;49.65723;102274.3;;;;-75
2022/08/29 19:39:19;;;;;;;;;;;;;;;20.75;50.31152;102277.2;;;;-73
2022/08/29 19:44:19;;;;;;;;;;;;;;;20.61;50.68457;102287.5;;;;-78
2022/08/29 19:49:19;;;;;;;;;;;;;;;20.48;50.91016;102275.3;;;;-76
2022/08/29 19:54:19;;;;;;;;;;;;;;;20.36;51.27344;102280.7;;;;-77
2022/08/29 19:59:19;;;;;;;;;;;;;;;20.24;51.85254;102281.7;;;;-75
2022/08/29 19:59:31;;;;;;;3.9;1.4;;;;;;;;;;;;;-75
2022/08/29 20:04:21;;;;;;;;;;;;;;;20.13;51.89648;102288.8;;;;-75
2022/08/29 20:09:19;;;;;;;;;;;;;;;20;52.51953;102282.1;;;;-74
2022/08/29 20:14:19;;;;;;;;;;;;;;;19.9;52.71289;102289.9;;;;-76
2022/08/29 20:19:20;;;;;;;;;;;;;;;19.8;53.17969;102287.6;;;;-76
2022/08/29 20:24:19;;;;;;;;;;;;;;;19.7;53.52051;102286.1;;;;-75
2022/08/29 20:29:19;;;;;;;;;;;;;;;19.61;53.30469;102289.5;;;;-72
2022/08/29 20:29:35;;;;;;;3.7;1.7;;;;;;;;;;;;;-74
2022/08/29 20:34:19;;;;;;;;;;;;;;;19.54;53.3877;102287.3;;;;-78
2022/08/29 20:39:20;;;;;;;;;;;;;;;19.43;53.875;102289.5;;;;-75
2022/08/29 20:44:20;;;;;;;;;;;;;;;19.36;54.25391;102282;;;;-74
2022/08/29 20:49:20;;;;;;;;;;;;;;;19.28;54.11816;102286.5;;;;-76
2022/08/29 20:54:20;;;;;;;;;;;;;;;19.21;54.42871;102288.3;;;;-76
2022/08/29 20:59:19;;;;;;;;;;;;;;;19.13;54.77246;102291.3;;;;-76
2022/08/29 20:59:38;;;;;;;6.5;1.6;;;;;;;;;;;;;-75
2022/08/29 21:09:18;;;;;;;;;;;;;;;18.99;55.1748;102299.9;;;;-75
2022/08/29 21:14:21;;;;;;;;;;;;;;;18.92;55.80273;102307.4;;;;-75
2022/08/29 21:19:19;;;;;;;;;;;;;;;18.85;55.91895;102307.1;;;;-76
2022/08/29 21:24:19;;;;;;;;;;;;;;;18.78;56.05762;102308.5;;;;-75
2022/08/29 21:29:19;;;;;;;;;;;;;;;18.72;56.40234;102304.7;;;;-76
2022/08/29 21:29:42;;;;;;;5.3;1.7;;;;;;;;;;;;;-75
2022/08/29 21:34:19;;;;;;;;;;;;;;;18.67;56.03125;102297.4;;;;-75
2022/08/29 21:39:19;;;;;;;;;;;;;;;18.6;56.38672;102301.4;;;;-77
2022/08/29 21:44:21;;;;;;;;;;;;;;;18.55;56.7207;102297.5;;;;-75
2022/08/29 21:49:23;;;;;;;;;;;;;;;18.5;56.85059;102303.2;;;;-75
2022/08/29 21:54:19;;;;;;;;;;;;;;;18.44;57.0459;102300.9;;;;-75
2022/08/29 21:59:20;;;;;;;;;;;;;;;18.36;57.3418;102295.8;;;;-74
2022/08/29 21:59:42;;;;;;;3.8;1.4;;;;;;;;;;;;;-75
2022/08/29 22:04:19;;;;;;;;;;;;;;;18.32;57.23535;102304.6;;;;-76
2022/08/29 22:09:20;;;;;;;;;;;;;;;18.27;57.19531;102303;;;;-75
2022/08/29 22:16:27;;;;;;;;;;;;;;;18.24;57.54199;102304.6;;;;-74
2022/08/29 22:19:20;;;;;;;;;;;;;;;18.19;57.94336;102294.7;;;;-75
2022/08/29 22:24:19;;;;;;;;;;;;;;;18.12;57.99219;102296;;;;-75
2022/08/29 22:29:19;;;;;;;;;;;;;;;18.1;58.14844;102301.9;;;;-75
2022/08/29 22:29:44;;;;;;;4.3;1.4;;;;;;;;;;;;;-73
2022/08/29 22:34:24;;;;;;;;;;;;;;;18.04;58.41211;102298.3;;;;-74
2022/08/29 22:39:18;;;;;;;;;;;;;;;18.01;58.32813;102300.1;;;;-74
2022/08/29 22:44:19;;;;;;;;;;;;;;;17.96;58.25293;102300.8;;;;-77
2022/08/29 22:49:19;;;;;;;;;;;;;;;17.89;58.57324;102312.3;;;;-76
2022/08/29 22:59:19;;;;;;;;;;;;;;;17.81;58.54004;102320.1;;;;-77
2022/08/29 22:59:48;;;;;;;4.3;1.4;;;;;;;;;;;;;-74
2022/08/29 23:04:19;;;;;;;;;;;;;;;17.77;58.78516;102318.3;;;;-75
2022/08/29 23:09:19;;;;;;;;;;;;;;;17.75;58.50977;102313.2;;;;-76
2022/08/29 23:14:19;;;;;;;;;;;;;;;17.72;58.61914;102310.7;;;;-76
2022/08/29 23:19:19;;;;;;;;;;;;;;;17.68;58.96484;102311.2;;;;-74
2022/08/29 23:24:19;;;;;;;;;;;;;;;17.67;58.98535;102314.4;;;;-75
2022/08/29 23:29:19;;;;;;;;;;;;;;;17.65;58.97168;102316;;;;-76
2022/08/29 23:29:51;;;;;;;3;1.1;;;;;;;;;;;;;-76
2022/08/29 23:34:19;;;;;;;;;;;;;;;17.61;59.03418;102323.1;;;;-75
2022/08/29 23:39:19;;;;;;;;;;;;;;;17.57;59.12109;102324;;;;-76
2022/08/29 23:44:19;;;;;;;;;;;;;;;17.55;58.93652;102326.8;;;;-75
2022/08/29 23:49:19;;;;;;;;;;;;;;;17.5;59.82227;102322.3;;;;-76
2022/08/29 23:54:19;;;;;;;;;;;;;;;17.47;59.29785;102318.4;;;;-75
